Carnival Victory — 3FFL8 — position and weather

sailwx.info

Track history (hours):
 
Tides and Currents Weather Stations Pressure Air Temp Water Temp Dewpoint Dewpoint Depression Visibility Wind Speed Wind Dir Waves Ship Positions

Carnival Victory

Operator: Carnival Cruise Lines

Last reported at 2017-Dec-11 12:58 UTC. Time now 2017-Dec-11 13:30 UTC.
Position N 25°47' W 080°10'.

Type: Passenger vessel. MMSI: 355263000.

Date/timePositionNaut miles runAvg speedWind from/ knotsBaromVisibWave heightAir tempDewpointWater temp
2017-Dec-11 12:58N 25°47' W 080°10'0 0.0
2017-Dec-11 12:28N 25°47' W 080°10'0 0.0
2017-Dec-11 11:58N 25°47' W 080°10'0 0.0
2017-Dec-11 11:28N 25°47' W 080°10'1 2.9
2017-Dec-11 11:00N 25°46' W 080°09'611.0
2017-Dec-11 10:30N 25°47' W 080°03'4 7.2
2017-Dec-11 10:00N 25°48' W 079°59'4 7.2
2017-Dec-11 09:30N 25°49' W 079°55'4 8.2
2017-Dec-11 09:00N 25°51' W 079°51'4 8.3
2017-Dec-11 08:30N 25°52' W 079°47'4 8.6
2017-Dec-11 08:00N 25°54' W 079°42'4 8.8
2017-Dec-11 07:30N 25°56' W 079°38'5 9.0
2017-Dec-11 07:00N 26°01' W 079°36'4 9.0
2017-Dec-11 06:30N 26°04' W 079°34'5 9.2
2017-Dec-11 06:00N 26°08' W 079°31'5 9.5
2017-Dec-11 05:30N 26°13' W 079°32'5 9.7
2017-Dec-11 05:00N 26°18' W 079°31'510.2
2017-Dec-11 04:29N 26°23' W 079°29'62 1.3
2017-Dec-09 06:02N 26°08' W 078°21'113.6
2017-Dec-09 05:59N 26°08' W 078°22'813.2
2017-Dec-09 05:23N 26°10' W 078°30'3312.6
2017-Dec-09 02:45N 26°17' W 079°06'913.2
2017-Dec-09 02:06N 26°14' W 079°15'213.7
2017-Dec-09 01:59N 26°13' W 079°16'713.8
2017-Dec-09 01:31N 26°09' W 079°23'713.5
2017-Dec-09 01:01N 26°06' W 079°29'612.9
2017-Dec-09 00:30N 26°04' W 079°36'713.5
2017-Dec-09 00:00N 25°59' W 079°41'714.0
2017-Dec-08 23:30N 25°55' W 079°48'713.8
2017-Dec-08 23:00N 25°51' W 079°54'815.7
2017-Dec-08 22:31N 25°47' W 080°02'612.1
2017-Dec-08 22:00N 25°46' W 080°08'2 4.7
2017-Dec-08 21:30N 25°47' W 080°11'1 1.0
2017-Dec-08 20:55N 25°47' W 080°10'0 0.0
2017-Dec-08 20:25N 25°47' W 080°10'0 0.0
2017-Dec-08 19:58N 25°47' W 080°10'0 0.0
2017-Dec-08 19:25N 25°47' W 080°10'0 0.0
2017-Dec-08 18:58N 25°47' W 080°10'0 0.0
2017-Dec-08 18:28N 25°47' W 080°10'0 0.0
2017-Dec-08 17:58N 25°47' W 080°10'0 0.0
2017-Dec-08 17:28N 25°47' W 080°10'0 0.0
2017-Dec-08 16:55N 25°47' W 080°10'0 0.0
2017-Dec-08 16:28N 25°47' W 080°10'0 0.0
2017-Dec-08 15:58N 25°47' W 080°10'0 0.0
2017-Dec-08 15:28N 25°47' W 080°10'0 0.0
2017-Dec-08 14:58N 25°47' W 080°10'0 0.0
2017-Dec-08 14:28N 25°47' W 080°10'0 0.0
2017-Dec-08 13:58N 25°47' W 080°10'0 0.0
2017-Dec-08 13:25N 25°47' W 080°10'0 0.0
2017-Dec-08 12:58N 25°47' W 080°10'0 0.0
2017-Dec-08 12:28N 25°47' W 080°10'0 0.0
2017-Dec-08 11:52N 25°47' W 080°10'0 0.8
2017-Dec-08 11:30N 25°47' W 080°10'4 7.6
2017-Dec-08 11:01N 25°46' W 080°06'611.0
2017-Dec-08 10:30N 25°46' W 079°60'611.9
2017-Dec-08 10:00N 25°42' W 079°55'612.2
2017-Dec-08 09:30N 25°36' W 079°55'714.2
2017-Dec-08 09:00N 25°29' W 079°54'816.7
2017-Dec-08 08:30N 25°20' W 079°56'46816.6
2017-Dec-07 04:17N 20°46' W 086°48'519.8
2017-Dec-07 04:00N 20°42' W 086°52'1019.2
2017-Dec-07 03:30N 20°35' W 086°58'611.7
2017-Dec-07 03:00N 20°29' W 086°59'0 0.3
2017-Dec-07 02:27N 20°29' W 086°59'0 0.0
2017-Dec-07 02:00N 20°29' W 086°59'0 0.0
2017-Dec-07 01:30N 20°29' W 086°59'0 0.0
2017-Dec-07 01:00N 20°29' W 086°59'0 0.0
2017-Dec-07 00:30N 20°29' W 086°59'0 0.0
2017-Dec-07 00:00N 20°29' W 086°59'0 0.0
2017-Dec-06 23:30N 20°29' W 086°59'0 0.0
2017-Dec-06 23:00N 20°29' W 086°59'0 0.0
2017-Dec-06 22:30N 20°29' W 086°59'0 0.0
2017-Dec-06 22:00N 20°29' W 086°59'0 0.0
2017-Dec-06 21:30N 20°29' W 086°59'0 0.0
2017-Dec-06 21:00N 20°29' W 086°59'  
2017-Dec-04 10:30N 25°48' W 079°59'4 8.4
2017-Dec-04 10:00N 25°50' W 079°54'4 8.5
2017-Dec-04 09:30N 25°51' W 079°50'4 8.4
2017-Dec-04 09:00N 25°53' W 079°46'5 9.1
2017-Dec-04 08:30N 25°55' W 079°41'5 9.7
2017-Dec-04 08:00N 25°58' W 079°37'4 8.2
2017-Dec-04 07:30N 26°02' W 079°34'4 8.3
2017-Dec-04 07:00N 26°05' W 079°32'5 9.7
2017-Dec-04 06:29N 26°09' W 079°28'510.8
2017-Dec-04 06:00N 26°14' W 079°26'5 9.5
2017-Dec-04 05:30N 26°17' W 079°23'5 9.7
2017-Dec-04 05:00N 26°19' W 079°18'6 0.1
2017-Dec-02 02:26N 26°13' W 079°14'613.9
2017-Dec-02 02:00N 26°10' W 079°19'713.8
2017-Dec-02 01:30N 26°06' W 079°25'612.8
2017-Dec-02 01:00N 26°03' W 079°32'612.8
2017-Dec-02 00:30N 26°01' W 079°38'713.5
2017-Dec-02 00:00N 25°57' W 079°45'713.7
2017-Dec-01 23:30N 25°53' W 079°51'713.4
2017-Dec-01 23:00N 25°50' W 079°58'612.5
2017-Dec-01 22:30N 25°46' W 080°03'4 8.8
2017-Dec-01 22:00N 25°46' W 080°08'3 6.5
2017-Dec-01 21:31N 25°47' W 080°11'1 1.4
2017-Dec-01 21:00N 25°47' W 080°10'0 0.0
2017-Dec-01 20:30N 25°47' W 080°10'0 0.0
2017-Dec-01 20:00N 25°47' W 080°10'0 0.0
2017-Dec-01 19:30N 25°47' W 080°10'0 0.0
2017-Dec-01 19:00N 25°47' W 080°10'0 0.0
2017-Dec-01 18:30N 25°47' W 080°10'0 0.0
2017-Dec-01 18:00N 25°47' W 080°10'0 0.0
2017-Dec-01 17:30N 25°47' W 080°10'0 0.0
2017-Dec-01 17:00N 25°47' W 080°10'0 0.0
2017-Dec-01 16:30N 25°47' W 080°10'0 0.0
2017-Dec-01 16:00N 25°47' W 080°10'0 0.0
2017-Dec-01 15:27N 25°47' W 080°10'0 0.0
2017-Dec-01 15:00N 25°47' W 080°10'0 0.0
2017-Dec-01 14:30N 25°47' W 080°10'0 0.0
2017-Dec-01 13:57N 25°47' W 080°10'0 0.0
2017-Dec-01 13:27N 25°47' W 080°10'0 0.0
2017-Dec-01 13:00N 25°47' W 080°10'  
Track history (hours):
 
Tides and Currents Weather Stations Pressure Air Temp Water Temp Dewpoint Dewpoint Depression Visibility Wind Speed Wind Dir Waves Ship Positions

Carnival Victory

Operator: Carnival Cruise Lines

Last reported at 2017-Dec-11 12:58 UTC. Time now 2017-Dec-11 13:30 UTC.
Position N 25°47' W 080°10'.

Type: Passenger vessel. MMSI: 355263000.

Date/timePositionNaut miles runAvg speedWind from/ knotsBaromVisibWave heightAir tempDewpointWater temp
2017-Dec-11 12:58N 25°47' W 080°10'0 0.0
2017-Dec-11 12:28N 25°47' W 080°10'0 0.0
2017-Dec-11 11:58N 25°47' W 080°10'0 0.0
2017-Dec-11 11:28N 25°47' W 080°10'1 2.9
2017-Dec-11 11:00N 25°46' W 080°09'611.0
2017-Dec-11 10:30N 25°47' W 080°03'4 7.2
2017-Dec-11 10:00N 25°48' W 079°59'4 7.2
2017-Dec-11 09:30N 25°49' W 079°55'4 8.2
2017-Dec-11 09:00N 25°51' W 079°51'4 8.3
2017-Dec-11 08:30N 25°52' W 079°47'4 8.6
2017-Dec-11 08:00N 25°54' W 079°42'4 8.8
2017-Dec-11 07:30N 25°56' W 079°38'5 9.0
2017-Dec-11 07:00N 26°01' W 079°36'4 9.0
2017-Dec-11 06:30N 26°04' W 079°34'5 9.2
2017-Dec-11 06:00N 26°08' W 079°31'5 9.5
2017-Dec-11 05:30N 26°13' W 079°32'5 9.7
2017-Dec-11 05:00N 26°18' W 079°31'510.2
2017-Dec-11 04:29N 26°23' W 079°29'62 1.3
2017-Dec-09 06:02N 26°08' W 078°21'113.6
2017-Dec-09 05:59N 26°08' W 078°22'813.2
2017-Dec-09 05:23N 26°10' W 078°30'3312.6
2017-Dec-09 02:45N 26°17' W 079°06'913.2
2017-Dec-09 02:06N 26°14' W 079°15'213.7
2017-Dec-09 01:59N 26°13' W 079°16'713.8
2017-Dec-09 01:31N 26°09' W 079°23'713.5
2017-Dec-09 01:01N 26°06' W 079°29'612.9
2017-Dec-09 00:30N 26°04' W 079°36'713.5
2017-Dec-09 00:00N 25°59' W 079°41'714.0
2017-Dec-08 23:30N 25°55' W 079°48'713.8
2017-Dec-08 23:00N 25°51' W 079°54'815.7
2017-Dec-08 22:31N 25°47' W 080°02'612.1
2017-Dec-08 22:00N 25°46' W 080°08'2 4.7
2017-Dec-08 21:30N 25°47' W 080°11'1 1.0
2017-Dec-08 20:55N 25°47' W 080°10'0 0.0
2017-Dec-08 20:25N 25°47' W 080°10'0 0.0
2017-Dec-08 19:58N 25°47' W 080°10'0 0.0
2017-Dec-08 19:25N 25°47' W 080°10'0 0.0
2017-Dec-08 18:58N 25°47' W 080°10'0 0.0
2017-Dec-08 18:28N 25°47' W 080°10'0 0.0
2017-Dec-08 17:58N 25°47' W 080°10'0 0.0
2017-Dec-08 17:28N 25°47' W 080°10'0 0.0
2017-Dec-08 16:55N 25°47' W 080°10'0 0.0
2017-Dec-08 16:28N 25°47' W 080°10'0 0.0
2017-Dec-08 15:58N 25°47' W 080°10'0 0.0
2017-Dec-08 15:28N 25°47' W 080°10'0 0.0
2017-Dec-08 14:58N 25°47' W 080°10'0 0.0
2017-Dec-08 14:28N 25°47' W 080°10'0 0.0
2017-Dec-08 13:58N 25°47' W 080°10'0 0.0
2017-Dec-08 13:25N 25°47' W 080°10'0 0.0
2017-Dec-08 12:58N 25°47' W 080°10'0 0.0
2017-Dec-08 12:28N 25°47' W 080°10'0 0.0
2017-Dec-08 11:52N 25°47' W 080°10'0 0.8
2017-Dec-08 11:30N 25°47' W 080°10'4 7.6
2017-Dec-08 11:01N 25°46' W 080°06'611.0
2017-Dec-08 10:30N 25°46' W 079°60'611.9
2017-Dec-08 10:00N 25°42' W 079°55'612.2
2017-Dec-08 09:30N 25°36' W 079°55'714.2
2017-Dec-08 09:00N 25°29' W 079°54'816.7
2017-Dec-08 08:30N 25°20' W 079°56'46816.6
2017-Dec-07 04:17N 20°46' W 086°48'519.8
2017-Dec-07 04:00N 20°42' W 086°52'1019.2
2017-Dec-07 03:30N 20°35' W 086°58'611.7
2017-Dec-07 03:00N 20°29' W 086°59'0 0.3
2017-Dec-07 02:27N 20°29' W 086°59'0 0.0
2017-Dec-07 02:00N 20°29' W 086°59'0 0.0
2017-Dec-07 01:30N 20°29' W 086°59'0 0.0
2017-Dec-07 01:00N 20°29' W 086°59'0 0.0
2017-Dec-07 00:30N 20°29' W 086°59'0 0.0
2017-Dec-07 00:00N 20°29' W 086°59'0 0.0
2017-Dec-06 23:30N 20°29' W 086°59'0 0.0
2017-Dec-06 23:00N 20°29' W 086°59'0 0.0
2017-Dec-06 22:30N 20°29' W 086°59'0 0.0
2017-Dec-06 22:00N 20°29' W 086°59'0 0.0
2017-Dec-06 21:30N 20°29' W 086°59'0 0.0
2017-Dec-06 21:00N 20°29' W 086°59'  
2017-Dec-04 10:30N 25°48' W 079°59'4 8.4
2017-Dec-04 10:00N 25°50' W 079°54'4 8.5
2017-Dec-04 09:30N 25°51' W 079°50'4 8.4
2017-Dec-04 09:00N 25°53' W 079°46'5 9.1
2017-Dec-04 08:30N 25°55' W 079°41'5 9.7
2017-Dec-04 08:00N 25°58' W 079°37'4 8.2
2017-Dec-04 07:30N 26°02' W 079°34'4 8.3
2017-Dec-04 07:00N 26°05' W 079°32'5 9.7
2017-Dec-04 06:29N 26°09' W 079°28'510.8
2017-Dec-04 06:00N 26°14' W 079°26'5 9.5
2017-Dec-04 05:30N 26°17' W 079°23'5 9.7
2017-Dec-04 05:00N 26°19' W 079°18'6 0.1
2017-Dec-02 02:26N 26°13' W 079°14'613.9
2017-Dec-02 02:00N 26°10' W 079°19'713.8
2017-Dec-02 01:30N 26°06' W 079°25'612.8
2017-Dec-02 01:00N 26°03' W 079°32'612.8
2017-Dec-02 00:30N 26°01' W 079°38'713.5
2017-Dec-02 00:00N 25°57' W 079°45'713.7
2017-Dec-01 23:30N 25°53' W 079°51'713.4
2017-Dec-01 23:00N 25°50' W 079°58'612.5
2017-Dec-01 22:30N 25°46' W 080°03'4 8.8
2017-Dec-01 22:00N 25°46' W 080°08'3 6.5
2017-Dec-01 21:31N 25°47' W 080°11'1 1.4
2017-Dec-01 21:00N 25°47' W 080°10'0 0.0
2017-Dec-01 20:30N 25°47' W 080°10'0 0.0
2017-Dec-01 20:00N 25°47' W 080°10'0 0.0
2017-Dec-01 19:30N 25°47' W 080°10'0 0.0
2017-Dec-01 19:00N 25°47' W 080°10'0 0.0
2017-Dec-01 18:30N 25°47' W 080°10'0 0.0
2017-Dec-01 18:00N 25°47' W 080°10'0 0.0
2017-Dec-01 17:30N 25°47' W 080°10'0 0.0
2017-Dec-01 17:00N 25°47' W 080°10'0 0.0
2017-Dec-01 16:30N 25°47' W 080°10'0 0.0
2017-Dec-01 16:00N 25°47' W 080°10'0 0.0
2017-Dec-01 15:27N 25°47' W 080°10'0 0.0
2017-Dec-01 15:00N 25°47' W 080°10'0 0.0
2017-Dec-01 14:30N 25°47' W 080°10'0 0.0
2017-Dec-01 13:57N 25°47' W 080°10'0 0.0
2017-Dec-01 13:27N 25°47' W 080°10'0 0.0
2017-Dec-01 13:00N 25°47' W 080°10'  

Dump ship's entire track history